sensor_id;sensor_type;location;lat;lon;timestamp;temperature;humidity
28763;DHT22;15918;51.270;6.522;2022-10-16T00:02:24;17.00;76.80
28763;DHT22;15918;51.270;6.522;2022-10-16T00:04:50;17.00;76.80
28763;DHT22;15918;51.270;6.522;2022-10-16T00:07:15;17.00;76.80
28763;DHT22;15918;51.270;6.522;2022-10-16T00:09:41;17.00;76.80
28763;DHT22;15918;51.270;6.522;2022-10-16T00:12:06;17.00;76.80
28763;DHT22;15918;51.270;6.522;2022-10-16T00:14:32;17.00;76.80
28763;DHT22;15918;51.270;6.522;2022-10-16T00:16:58;17.00;76.90
28763;DHT22;15918;51.270;6.522;2022-10-16T00:19:23;17.00;76.80
28763;DHT22;15918;51.270;6.522;2022-10-16T00:21:49;17.00;76.80
28763;DHT22;15918;51.270;6.522;2022-10-16T00:24:15;17.00;76.80
28763;DHT22;15918;51.270;6.522;2022-10-16T00:26:41;17.00;76.80
28763;DHT22;15918;51.270;6.522;2022-10-16T00:29:07;17.00;76.70
28763;DHT22;15918;51.270;6.522;2022-10-16T00:31:33;17.00;76.70
28763;DHT22;15918;51.270;6.522;2022-10-16T00:33:58;17.00;76.80
28763;DHT22;15918;51.270;6.522;2022-10-16T00:36:26;17.00;76.70
28763;DHT22;15918;51.270;6.522;2022-10-16T00:38:54;16.90;76.60
28763;DHT22;15918;51.270;6.522;2022-10-16T00:41:21;16.90;76.70
28763;DHT22;15918;51.270;6.522;2022-10-16T00:43:59;16.90;77.40
28763;DHT22;15918;51.270;6.522;2022-10-16T00:46:38;16.90;76.60
28763;DHT22;15918;51.270;6.522;2022-10-16T00:49:10;16.90;76.60
28763;DHT22;15918;51.270;6.522;2022-10-16T00:51:45;16.90;76.60
28763;DHT22;15918;51.270;6.522;2022-10-16T00:54:18;16.90;76.60
28763;DHT22;15918;51.270;6.522;2022-10-16T00:56:46;16.90;76.60
28763;DHT22;15918;51.270;6.522;2022-10-16T00:59:16;16.90;76.60
28763;DHT22;15918;51.270;6.522;2022-10-16T01:01:43;16.90;76.60
28763;DHT22;15918;51.270;6.522;2022-10-16T01:04:09;16.90;76.60
28763;DHT22;15918;51.270;6.522;2022-10-16T01:06:45;16.90;76.60
28763;DHT22;15918;51.270;6.522;2022-10-16T01:10:07;16.90;76.60
28763;DHT22;15918;51.270;6.522;2022-10-16T01:12:27;16.90;76.50
28763;DHT22;15918;51.270;6.522;2022-10-16T01:15:08;16.90;76.60
28763;DHT22;15918;51.270;6.522;2022-10-16T01:17:43;16.90;76.60
28763;DHT22;15918;51.270;6.522;2022-10-16T01:28:36;16.80;76.70
28763;DHT22;15918;51.270;6.522;2022-10-16T01:31:05;16.90;76.60
28763;DHT22;15918;51.270;6.522;2022-10-16T01:33:38;16.80;76.70
28763;DHT22;15918;51.270;6.522;2022-10-16T01:36:13;16.90;76.60
28763;DHT22;15918;51.270;6.522;2022-10-16T01:38:40;16.90;76.50
28763;DHT22;15918;51.270;6.522;2022-10-16T01:41:15;16.80;76.50
28763;DHT22;15918;51.270;6.522;2022-10-16T01:43:46;16.80;76.30
28763;DHT22;15918;51.270;6.522;2022-10-16T01:46:16;16.80;76.40
28763;DHT22;15918;51.270;6.522;2022-10-16T01:48:43;16.80;76.40
28763;DHT22;15918;51.270;6.522;2022-10-16T01:51:11;16.80;76.40
28763;DHT22;15918;51.270;6.522;2022-10-16T01:53:39;16.80;76.40
28763;DHT22;15918;51.270;6.522;2022-10-16T01:56:08;16.80;76.30
28763;DHT22;15918;51.270;6.522;2022-10-16T01:58:37;16.80;76.30
28763;DHT22;15918;51.270;6.522;2022-10-16T02:01:07;16.80;76.30
28763;DHT22;15918;51.270;6.522;2022-10-16T02:03:37;16.80;76.30
28763;DHT22;15918;51.270;6.522;2022-10-16T02:06:06;16.70;76.20
28763;DHT22;15918;51.270;6.522;2022-10-16T02:08:32;16.80;76.30
28763;DHT22;15918;51.270;6.522;2022-10-16T02:11:00;16.80;76.30
28763;DHT22;15918;51.270;6.522;2022-10-16T02:13:32;16.80;76.30
28763;DHT22;15918;51.270;6.522;2022-10-16T02:15:59;16.80;76.20
28763;DHT22;15918;51.270;6.522;2022-10-16T02:18:25;16.70;76.20
28763;DHT22;15918;51.270;6.522;2022-10-16T02:21:06;16.80;76.30
28763;DHT22;15918;51.270;6.522;2022-10-16T02:23:45;16.70;76.20
28763;DHT22;15918;51.270;6.522;2022-10-16T02:26:19;16.80;76.30
28763;DHT22;15918;51.270;6.522;2022-10-16T02:28:51;16.80;76.30
28763;DHT22;15918;51.270;6.522;2022-10-16T02:31:25;16.70;76.20
28763;DHT22;15918;51.270;6.522;2022-10-16T02:33:53;16.80;76.20
28763;DHT22;15918;51.270;6.522;2022-10-16T02:36:20;16.70;76.10
28763;DHT22;15918;51.270;6.522;2022-10-16T02:38:46;16.70;76.10
28763;DHT22;15918;51.270;6.522;2022-10-16T02:41:12;16.70;76.00
28763;DHT22;15918;51.270;6.522;2022-10-16T02:43:37;16.70;76.00
28763;DHT22;15918;51.270;6.522;2022-10-16T02:46:03;16.70;76.00
28763;DHT22;15918;51.270;6.522;2022-10-16T02:48:29;16.70;76.00
28763;DHT22;15918;51.270;6.522;2022-10-16T02:50:55;16.70;75.90
28763;DHT22;15918;51.270;6.522;2022-10-16T02:53:20;16.70;75.90
28763;DHT22;15918;51.270;6.522;2022-10-16T02:55:46;16.70;76.00
28763;DHT22;15918;51.270;6.522;2022-10-16T02:58:11;16.70;76.70
28763;DHT22;15918;51.270;6.522;2022-10-16T03:00:37;16.70;75.90
28763;DHT22;15918;51.270;6.522;2022-10-16T03:03:02;16.70;75.90
28763;DHT22;15918;51.270;6.522;2022-10-16T03:05:28;16.70;75.90
28763;DHT22;15918;51.270;6.522;2022-10-16T03:07:54;16.70;75.90
28763;DHT22;15918;51.270;6.522;2022-10-16T03:10:19;16.70;75.80
28763;DHT22;15918;51.270;6.522;2022-10-16T03:12:45;16.70;75.80
28763;DHT22;15918;51.270;6.522;2022-10-16T03:15:10;16.70;75.80
28763;DHT22;15918;51.270;6.522;2022-10-16T03:17:36;16.70;75.70
28763;DHT22;15918;51.270;6.522;2022-10-16T03:20:02;16.70;75.70
28763;DHT22;15918;51.270;6.522;2022-10-16T03:22:28;16.70;75.80
28763;DHT22;15918;51.270;6.522;2022-10-16T03:24:54;16.70;75.80
28763;DHT22;15918;51.270;6.522;2022-10-16T03:27:19;16.70;75.80
28763;DHT22;15918;51.270;6.522;2022-10-16T03:29:45;16.70;75.70
28763;DHT22;15918;51.270;6.522;2022-10-16T03:32:11;16.60;75.70
28763;DHT22;15918;51.270;6.522;2022-10-16T03:34:36;16.60;75.70
28763;DHT22;15918;51.270;6.522;2022-10-16T03:37:02;16.70;75.70
28763;DHT22;15918;51.270;6.522;2022-10-16T03:39:27;16.60;75.60
28763;DHT22;15918;51.270;6.522;2022-10-16T03:41:53;16.70;75.70
28763;DHT22;15918;51.270;6.522;2022-10-16T03:44:19;16.60;75.60
28763;DHT22;15918;51.270;6.522;2022-10-16T03:46:44;16.70;75.60
28763;DHT22;15918;51.270;6.522;2022-10-16T03:49:10;16.70;75.60
28763;DHT22;15918;51.270;6.522;2022-10-16T03:51:35;16.60;75.60
28763;DHT22;15918;51.270;6.522;2022-10-16T03:54:01;16.70;75.60
28763;DHT22;15918;51.270;6.522;2022-10-16T03:56:27;16.60;75.60
28763;DHT22;15918;51.270;6.522;2022-10-16T03:58:52;16.70;75.70
28763;DHT22;15918;51.270;6.522;2022-10-16T04:01:18;16.60;75.50
28763;DHT22;15918;51.270;6.522;2022-10-16T04:03:43;16.60;75.60
28763;DHT22;15918;51.270;6.522;2022-10-16T04:06:09;16.60;75.60
28763;DHT22;15918;51.270;6.522;2022-10-16T04:08:34;16.60;75.50
28763;DHT22;15918;51.270;6.522;2022-10-16T04:11:02;16.60;75.50
28763;DHT22;15918;51.270;6.522;2022-10-16T04:13:28;16.60;75.50
28763;DHT22;15918;51.270;6.522;2022-10-16T04:15:54;16.60;75.50
28763;DHT22;15918;51.270;6.522;2022-10-16T04:18:19;16.60;75.40
28763;DHT22;15918;51.270;6.522;2022-10-16T04:20:45;16.60;75.40
28763;DHT22;15918;51.270;6.522;2022-10-16T04:23:10;16.60;75.40
28763;DHT22;15918;51.270;6.522;2022-10-16T04:25:36;16.60;75.40
28763;DHT22;15918;51.270;6.522;2022-10-16T04:28:02;16.60;75.40
28763;DHT22;15918;51.270;6.522;2022-10-16T04:30:27;16.60;75.40
28763;DHT22;15918;51.270;6.522;2022-10-16T04:32:53;16.60;75.30
28763;DHT22;15918;51.270;6.522;2022-10-16T04:35:20;16.50;75.20
28763;DHT22;15918;51.270;6.522;2022-10-16T04:37:46;16.60;75.30
28763;DHT22;15918;51.270;6.522;2022-10-16T04:40:12;16.60;75.30
28763;DHT22;15918;51.270;6.522;2022-10-16T04:42:38;16.50;75.20
28763;DHT22;15918;51.270;6.522;2022-10-16T04:45:05;16.60;75.20
28763;DHT22;15918;51.270;6.522;2022-10-16T04:47:31;16.60;75.30
28763;DHT22;15918;51.270;6.522;2022-10-16T04:49:56;16.50;75.10
28763;DHT22;15918;51.270;6.522;2022-10-16T04:52:22;16.50;75.20
28763;DHT22;15918;51.270;6.522;2022-10-16T04:54:50;16.60;75.20
28763;DHT22;15918;51.270;6.522;2022-10-16T04:57:16;16.50;75.20
28763;DHT22;15918;51.270;6.522;2022-10-16T04:59:41;16.60;75.20
28763;DHT22;15918;51.270;6.522;2022-10-16T05:02:07;16.50;75.10
28763;DHT22;15918;51.270;6.522;2022-10-16T05:04:33;16.50;75.10
28763;DHT22;15918;51.270;6.522;2022-10-16T05:06:58;16.50;75.10
28763;DHT22;15918;51.270;6.522;2022-10-16T05:09:24;16.50;75.20
28763;DHT22;15918;51.270;6.522;2022-10-16T05:11:49;16.50;75.20
28763;DHT22;15918;51.270;6.522;2022-10-16T05:14:15;16.50;75.20
28763;DHT22;15918;51.270;6.522;2022-10-16T05:16:40;16.50;75.20
28763;DHT22;15918;51.270;6.522;2022-10-16T05:19:06;16.50;75.30
28763;DHT22;15918;51.270;6.522;2022-10-16T05:21:32;16.50;75.20
28763;DHT22;15918;51.270;6.522;2022-10-16T05:23:57;16.50;75.10
28763;DHT22;15918;51.270;6.522;2022-10-16T05:26:23;16.50;75.10
28763;DHT22;15918;51.270;6.522;2022-10-16T05:28:49;16.40;75.10
28763;DHT22;15918;51.270;6.522;2022-10-16T05:31:15;16.40;75.10
28763;DHT22;15918;51.270;6.522;2022-10-16T05:33:41;16.50;75.10
28763;DHT22;15918;51.270;6.522;2022-10-16T05:36:08;16.50;75.10
28763;DHT22;15918;51.270;6.522;2022-10-16T05:38:35;16.50;75.00
28763;DHT22;15918;51.270;6.522;2022-10-16T05:41:01;16.40;75.00
28763;DHT22;15918;51.270;6.522;2022-10-16T05:43:28;16.50;75.00
28763;DHT22;15918;51.270;6.522;2022-10-16T05:45:58;16.40;74.90
28763;DHT22;15918;51.270;6.522;2022-10-16T05:48:24;16.50;75.00
28763;DHT22;15918;51.270;6.522;2022-10-16T05:50:57;16.40;75.00
28763;DHT22;15918;51.270;6.522;2022-10-16T05:53:23;16.40;74.90
28763;DHT22;15918;51.270;6.522;2022-10-16T05:55:57;16.40;75.10
28763;DHT22;15918;51.270;6.522;2022-10-16T06:00:59;16.40;75.00
28763;DHT22;15918;51.270;6.522;2022-10-16T06:03:25;16.40;75.00
28763;DHT22;15918;51.270;6.522;2022-10-16T06:05:51;16.40;75.00
28763;DHT22;15918;51.270;6.522;2022-10-16T06:08:17;16.40;75.00
28763;DHT22;15918;51.270;6.522;2022-10-16T06:10:44;16.40;75.10
28763;DHT22;15918;51.270;6.522;2022-10-16T06:13:11;16.40;75.00
28763;DHT22;15918;51.270;6.522;2022-10-16T06:15:37;16.40;75.00
28763;DHT22;15918;51.270;6.522;2022-10-16T06:18:04;16.40;75.00
28763;DHT22;15918;51.270;6.522;2022-10-16T06:20:30;16.40;75.10
28763;DHT22;15918;51.270;6.522;2022-10-16T06:22:56;16.30;75.00
28763;DHT22;15918;51.270;6.522;2022-10-16T06:25:22;16.30;75.00
28763;DHT22;15918;51.270;6.522;2022-10-16T06:27:48;16.40;75.00
28763;DHT22;15918;51.270;6.522;2022-10-16T06:30:13;16.30;75.10
28763;DHT22;15918;51.270;6.522;2022-10-16T06:32:39;16.30;75.00
28763;DHT22;15918;51.270;6.522;2022-10-16T06:35:05;16.30;75.00
28763;DHT22;15918;51.270;6.522;2022-10-16T06:37:30;16.40;75.00
28763;DHT22;15918;51.270;6.522;2022-10-16T06:39:56;16.40;75.20
28763;DHT22;15918;51.270;6.522;2022-10-16T06:42:21;16.40;75.20
28763;DHT22;15918;51.270;6.522;2022-10-16T06:44:47;16.40;75.20
28763;DHT22;15918;51.270;6.522;2022-10-16T06:47:12;16.30;75.20
28763;DHT22;15918;51.270;6.522;2022-10-16T06:49:38;16.30;75.30
28763;DHT22;15918;51.270;6.522;2022-10-16T06:52:03;16.30;75.30
28763;DHT22;15918;51.270;6.522;2022-10-16T06:54:30;16.30;75.30
28763;DHT22;15918;51.270;6.522;2022-10-16T06:56:55;16.30;75.30
28763;DHT22;15918;51.270;6.522;2022-10-16T06:59:21;16.30;75.30
28763;DHT22;15918;51.270;6.522;2022-10-16T07:01:47;16.30;75.30
28763;DHT22;15918;51.270;6.522;2022-10-16T07:04:13;16.30;75.30
28763;DHT22;15918;51.270;6.522;2022-10-16T07:06:38;16.30;75.30
28763;DHT22;15918;51.270;6.522;2022-10-16T07:09:07;16.30;75.30
28763;DHT22;15918;51.270;6.522;2022-10-16T07:11:33;16.30;76.10
28763;DHT22;15918;51.270;6.522;2022-10-16T07:13:59;16.30;75.40
28763;DHT22;15918;51.270;6.522;2022-10-16T07:16:30;16.30;75.40
28763;DHT22;15918;51.270;6.522;2022-10-16T07:18:59;16.30;75.30
28763;DHT22;15918;51.270;6.522;2022-10-16T07:21:27;16.30;75.40
28763;DHT22;15918;51.270;6.522;2022-10-16T07:23:55;16.30;75.40
28763;DHT22;15918;51.270;6.522;2022-10-16T07:26:23;16.30;75.40
28763;DHT22;15918;51.270;6.522;2022-10-16T07:28:49;16.30;75.40
28763;DHT22;15918;51.270;6.522;2022-10-16T07:31:16;16.30;75.40
28763;DHT22;15918;51.270;6.522;2022-10-16T07:33:43;16.30;75.40
28763;DHT22;15918;51.270;6.522;2022-10-16T07:36:11;16.30;75.40
28763;DHT22;15918;51.270;6.522;2022-10-16T07:38:38;16.30;75.40
28763;DHT22;15918;51.270;6.522;2022-10-16T07:41:06;16.30;75.50
28763;DHT22;15918;51.270;6.522;2022-10-16T07:43:32;16.30;75.50
28763;DHT22;15918;51.270;6.522;2022-10-16T07:45:58;16.30;75.60
28763;DHT22;15918;51.270;6.522;2022-10-16T07:48:29;16.30;75.70
28763;DHT22;15918;51.270;6.522;2022-10-16T07:51:02;16.30;75.70
28763;DHT22;15918;51.270;6.522;2022-10-16T07:53:28;16.30;75.70
28763;DHT22;15918;51.270;6.522;2022-10-16T07:56:01;16.30;75.80
28763;DHT22;15918;51.270;6.522;2022-10-16T07:58:27;16.40;75.80
28763;DHT22;15918;51.270;6.522;2022-10-16T08:00:53;16.40;76.00
28763;DHT22;15918;51.270;6.522;2022-10-16T08:03:19;16.40;76.00
28763;DHT22;15918;51.270;6.522;2022-10-16T08:05:45;16.50;76.10
28763;DHT22;15918;51.270;6.522;2022-10-16T08:08:15;16.40;76.00
28763;DHT22;15918;51.270;6.522;2022-10-16T08:10:41;16.40;75.90
28763;DHT22;15918;51.270;6.522;2022-10-16T08:13:06;16.50;76.10
28763;DHT22;15918;51.270;6.522;2022-10-16T08:15:32;16.50;76.10
28763;DHT22;15918;51.270;6.522;2022-10-16T08:18:00;16.40;76.10
28763;DHT22;15918;51.270;6.522;2022-10-16T08:20:26;16.50;76.20
28763;DHT22;15918;51.270;6.522;2022-10-16T08:22:52;16.50;76.20
28763;DHT22;15918;51.270;6.522;2022-10-16T08:25:19;16.50;76.20
28763;DHT22;15918;51.270;6.522;2022-10-16T08:27:44;16.50;76.20
28763;DHT22;15918;51.270;6.522;2022-10-16T08:30:10;16.60;76.40
28763;DHT22;15918;51.270;6.522;2022-10-16T08:32:36;16.50;76.40
28763;DHT22;15918;51.270;6.522;2022-10-16T08:35:02;16.60;76.60
28763;DHT22;15918;51.270;6.522;2022-10-16T08:37:31;16.60;76.60
28763;DHT22;15918;51.270;6.522;2022-10-16T08:39:57;16.60;76.60
28763;DHT22;15918;51.270;6.522;2022-10-16T08:45:27;16.70;76.70
28763;DHT22;15918;51.270;6.522;2022-10-16T08:50:30;16.70;76.70
28763;DHT22;15918;51.270;6.522;2022-10-16T08:52:57;16.70;76.70
28763;DHT22;15918;51.270;6.522;2022-10-16T08:57:51;16.80;76.70
28763;DHT22;15918;51.270;6.522;2022-10-16T09:00:17;16.80;76.80
28763;DHT22;15918;51.270;6.522;2022-10-16T09:02:53;16.80;76.80
28763;DHT22;15918;51.270;6.522;2022-10-16T09:10:51;16.90;76.80
28763;DHT22;15918;51.270;6.522;2022-10-16T09:16:19;16.90;76.90
28763;DHT22;15918;51.270;6.522;2022-10-16T09:18:58;16.90;76.90
28763;DHT22;15918;51.270;6.522;2022-10-16T09:21:31;17.00;76.90
28763;DHT22;15918;51.270;6.522;2022-10-16T09:24:00;17.00;76.90
28763;DHT22;15918;51.270;6.522;2022-10-16T09:26:30;17.00;76.90
28763;DHT22;15918;51.270;6.522;2022-10-16T09:28:55;17.00;76.80
28763;DHT22;15918;51.270;6.522;2022-10-16T09:31:22;17.00;76.70
28763;DHT22;15918;51.270;6.522;2022-10-16T09:33:54;17.10;76.70
28763;DHT22;15918;51.270;6.522;2022-10-16T09:36:21;17.10;76.60
28763;DHT22;15918;51.270;6.522;2022-10-16T09:38:48;17.10;76.60
28763;DHT22;15918;51.270;6.522;2022-10-16T09:41:18;17.10;76.40
28763;DHT22;15918;51.270;6.522;2022-10-16T09:43:56;17.20;76.50
28763;DHT22;15918;51.270;6.522;2022-10-16T09:46:34;17.20;76.40
28763;DHT22;15918;51.270;6.522;2022-10-16T09:51:28;17.30;76.40
28763;DHT22;15918;51.270;6.522;2022-10-16T09:56:36;17.30;75.90
28763;DHT22;15918;51.270;6.522;2022-10-16T10:01:38;17.30;75.90
28763;DHT22;15918;51.270;6.522;2022-10-16T10:04:05;17.40;76.00
28763;DHT22;15918;51.270;6.522;2022-10-16T10:06:34;17.40;76.00
28763;DHT22;15918;51.270;6.522;2022-10-16T10:09:04;17.40;75.90
28763;DHT22;15918;51.270;6.522;2022-10-16T10:11:42;17.50;75.90
28763;DHT22;15918;51.270;6.522;2022-10-16T10:14:26;17.40;75.70
28763;DHT22;15918;51.270;6.522;2022-10-16T10:17:09;17.50;75.60
28763;DHT22;15918;51.270;6.522;2022-10-16T10:19:59;17.50;75.60
28763;DHT22;15918;51.270;6.522;2022-10-16T10:22:39;17.50;75.40
28763;DHT22;15918;51.270;6.522;2022-10-16T10:33:27;17.60;75.50
28763;DHT22;15918;51.270;6.522;2022-10-16T10:38:54;17.60;75.40
28763;DHT22;15918;51.270;6.522;2022-10-16T10:41:59;17.70;75.10
28763;DHT22;15918;51.270;6.522;2022-10-16T10:50:07;17.70;75.10
28763;DHT22;15918;51.270;6.522;2022-10-16T10:52:43;17.70;75.10
28763;DHT22;15918;51.270;6.522;2022-10-16T10:58:27;17.80;74.90
28763;DHT22;15918;51.270;6.522;2022-10-16T11:01:06;17.80;74.90
28763;DHT22;15918;51.270;6.522;2022-10-16T11:06:20;17.80;74.60
28763;DHT22;15918;51.270;6.522;2022-10-16T11:09:22;17.90;74.70
28763;DHT22;15918;51.270;6.522;2022-10-16T11:11:50;17.90;74.60
28763;DHT22;15918;51.270;6.522;2022-10-16T11:14:28;17.90;74.80
28763;DHT22;15918;51.270;6.522;2022-10-16T11:24:41;18.00;74.20
28763;DHT22;15918;51.270;6.522;2022-10-16T11:27:12;18.00;74.30
28763;DHT22;15918;51.270;6.522;2022-10-16T11:30:08;18.00;74.20
28763;DHT22;15918;51.270;6.522;2022-10-16T11:46:45;18.10;73.90
28763;DHT22;15918;51.270;6.522;2022-10-16T11:49:32;18.10;74.10
28763;DHT22;15918;51.270;6.522;2022-10-16T11:52:22;18.20;73.80
28763;DHT22;15918;51.270;6.522;2022-10-16T11:55:05;18.20;74.00
28763;DHT22;15918;51.270;6.522;2022-10-16T11:57:40;18.20;74.00
28763;DHT22;15918;51.270;6.522;2022-10-16T12:00:28;18.20;73.90
28763;DHT22;15918;51.270;6.522;2022-10-16T12:08:54;18.30;73.20
28763;DHT22;15918;51.270;6.522;2022-10-16T12:14:05;18.40;73.30
28763;DHT22;15918;51.270;6.522;2022-10-16T12:16:31;18.30;73.20
28763;DHT22;15918;51.270;6.522;2022-10-16T12:19:14;18.40;73.20
28763;DHT22;15918;51.270;6.522;2022-10-16T12:21:41;18.40;73.00
28763;DHT22;15918;51.270;6.522;2022-10-16T12:26:52;18.40;72.90
28763;DHT22;15918;51.270;6.522;2022-10-16T12:29:39;18.40;73.00
28763;DHT22;15918;51.270;6.522;2022-10-16T12:34:51;18.50;72.80
28763;DHT22;15918;51.270;6.522;2022-10-16T12:37:22;18.50;72.80
28763;DHT22;15918;51.270;6.522;2022-10-16T12:39:49;18.50;72.50
28763;DHT22;15918;51.270;6.522;2022-10-16T12:44:53;18.60;72.70
28763;DHT22;15918;51.270;6.522;2022-10-16T12:47:49;18.60;72.70
28763;DHT22;15918;51.270;6.522;2022-10-16T12:52:52;18.60;72.70
28763;DHT22;15918;51.270;6.522;2022-10-16T12:55:19;18.60;72.60
28763;DHT22;15918;51.270;6.522;2022-10-16T13:06:04;18.70;72.70
28763;DHT22;15918;51.270;6.522;2022-10-16T13:22:27;18.70;72.20
28763;DHT22;15918;51.270;6.522;2022-10-16T13:25:57;18.80;72.20
28763;DHT22;15918;51.270;6.522;2022-10-16T13:28:07;18.70;72.10
28763;DHT22;15918;51.270;6.522;2022-10-16T13:30:42;18.70;72.20
28763;DHT22;15918;51.270;6.522;2022-10-16T13:33:17;18.70;71.90
28763;DHT22;15918;51.270;6.522;2022-10-16T13:35:53;18.80;71.90
28763;DHT22;15918;51.270;6.522;2022-10-16T13:38:25;18.80;71.90
28763;DHT22;15918;51.270;6.522;2022-10-16T13:40:59;18.80;71.90
28763;DHT22;15918;51.270;6.522;2022-10-16T13:43:41;18.80;72.00
28763;DHT22;15918;51.270;6.522;2022-10-16T13:46:14;18.80;72.10
28763;DHT22;15918;51.270;6.522;2022-10-16T13:48:40;18.80;72.00
28763;DHT22;15918;51.270;6.522;2022-10-16T13:51:13;18.80;72.10
28763;DHT22;15918;51.270;6.522;2022-10-16T13:53:39;18.80;72.10
28763;DHT22;15918;51.270;6.522;2022-10-16T13:56:09;18.80;72.10
28763;DHT22;15918;51.270;6.522;2022-10-16T13:58:35;18.80;72.10
28763;DHT22;15918;51.270;6.522;2022-10-16T14:01:24;18.80;72.20
28763;DHT22;15918;51.270;6.522;2022-10-16T14:03:51;18.90;72.00
28763;DHT22;15918;51.270;6.522;2022-10-16T14:06:20;18.90;72.10
28763;DHT22;15918;51.270;6.522;2022-10-16T14:08:57;18.80;72.10
28763;DHT22;15918;51.270;6.522;2022-10-16T14:11:24;18.90;72.20
28763;DHT22;15918;51.270;6.522;2022-10-16T14:13:51;18.90;72.30
28763;DHT22;15918;51.270;6.522;2022-10-16T14:16:22;18.90;72.20
28763;DHT22;15918;51.270;6.522;2022-10-16T14:19:03;18.90;72.30
28763;DHT22;15918;51.270;6.522;2022-10-16T14:21:33;18.90;72.30
28763;DHT22;15918;51.270;6.522;2022-10-16T14:23:59;18.90;72.40
28763;DHT22;15918;51.270;6.522;2022-10-16T14:26:28;18.90;72.50
28763;DHT22;15918;51.270;6.522;2022-10-16T14:29:14;18.90;72.60
28763;DHT22;15918;51.270;6.522;2022-10-16T14:31:40;18.90;72.50
28763;DHT22;15918;51.270;6.522;2022-10-16T14:36:54;18.90;72.60
28763;DHT22;15918;51.270;6.522;2022-10-16T14:39:22;18.90;72.60
28763;DHT22;15918;51.270;6.522;2022-10-16T14:41:50;18.90;72.30
28763;DHT22;15918;51.270;6.522;2022-10-16T14:44:18;18.90;72.30
28763;DHT22;15918;51.270;6.522;2022-10-16T14:46:44;19.00;72.40
28763;DHT22;15918;51.270;6.522;2022-10-16T14:51:40;18.90;72.50
28763;DHT22;15918;51.270;6.522;2022-10-16T14:54:08;18.90;72.50
28763;DHT22;15918;51.270;6.522;2022-10-16T14:56:54;18.90;72.50
28763;DHT22;15918;51.270;6.522;2022-10-16T14:59:28;19.00;72.50
28763;DHT22;15918;51.270;6.522;2022-10-16T15:01:55;18.90;72.70
28763;DHT22;15918;51.270;6.522;2022-10-16T15:04:21;18.90;72.60
28763;DHT22;15918;51.270;6.522;2022-10-16T15:06:46;18.90;72.40
28763;DHT22;15918;51.270;6.522;2022-10-16T15:09:12;18.90;72.40
28763;DHT22;15918;51.270;6.522;2022-10-16T15:11:38;18.90;72.40
28763;DHT22;15918;51.270;6.522;2022-10-16T15:14:04;18.90;72.50
28763;DHT22;15918;51.270;6.522;2022-10-16T15:16:30;18.90;72.50
28763;DHT22;15918;51.270;6.522;2022-10-16T15:18:56;18.90;72.50
28763;DHT22;15918;51.270;6.522;2022-10-16T15:21:27;18.90;72.50
28763;DHT22;15918;51.270;6.522;2022-10-16T15:23:53;18.90;72.10
28763;DHT22;15918;51.270;6.522;2022-10-16T15:26:19;18.90;71.90
28763;DHT22;15918;51.270;6.522;2022-10-16T15:28:45;19.00;71.70
28763;DHT22;15918;51.270;6.522;2022-10-16T15:31:11;19.00;72.40
28763;DHT22;15918;51.270;6.522;2022-10-16T15:33:36;18.90;71.50
28763;DHT22;15918;51.270;6.522;2022-10-16T15:36:02;18.90;71.50
28763;DHT22;15918;51.270;6.522;2022-10-16T15:38:30;18.90;71.50
28763;DHT22;15918;51.270;6.522;2022-10-16T15:40:56;18.90;71.70
28763;DHT22;15918;51.270;6.522;2022-10-16T15:43:22;18.90;71.90
28763;DHT22;15918;51.270;6.522;2022-10-16T15:46:00;18.90;71.80
28763;DHT22;15918;51.270;6.522;2022-10-16T15:48:26;19.00;71.80
28763;DHT22;15918;51.270;6.522;2022-10-16T15:50:52;18.90;71.80
28763;DHT22;15918;51.270;6.522;2022-10-16T15:53:17;18.90;71.60
28763;DHT22;15918;51.270;6.522;2022-10-16T15:55:43;18.90;71.60
28763;DHT22;15918;51.270;6.522;2022-10-16T15:58:08;18.90;71.80
28763;DHT22;15918;51.270;6.522;2022-10-16T16:00:34;18.90;71.70
28763;DHT22;15918;51.270;6.522;2022-10-16T16:02:59;18.90;71.80
28763;DHT22;15918;51.270;6.522;2022-10-16T16:05:25;18.90;71.80
28763;DHT22;15918;51.270;6.522;2022-10-16T16:07:52;18.90;71.80
28763;DHT22;15918;51.270;6.522;2022-10-16T16:10:18;18.90;71.90
28763;DHT22;15918;51.270;6.522;2022-10-16T16:12:47;18.90;72.00
28763;DHT22;15918;51.270;6.522;2022-10-16T16:15:18;19.00;72.20
28763;DHT22;15918;51.270;6.522;2022-10-16T16:17:44;18.90;72.20
28763;DHT22;15918;51.270;6.522;2022-10-16T16:20:10;18.90;72.30
28763;DHT22;15918;51.270;6.522;2022-10-16T16:22:36;18.90;72.30
28763;DHT22;15918;51.270;6.522;2022-10-16T16:25:01;18.80;72.20
28763;DHT22;15918;51.270;6.522;2022-10-16T16:27:27;18.90;72.30
28763;DHT22;15918;51.270;6.522;2022-10-16T16:29:55;18.90;72.40
28763;DHT22;15918;51.270;6.522;2022-10-16T16:32:21;18.80;72.40
28763;DHT22;15918;51.270;6.522;2022-10-16T16:34:46;18.90;72.60
28763;DHT22;15918;51.270;6.522;2022-10-16T16:37:12;18.80;72.50
28763;DHT22;15918;51.270;6.522;2022-10-16T16:39:38;18.80;72.60
28763;DHT22;15918;51.270;6.522;2022-10-16T16:42:04;18.80;72.70
28763;DHT22;15918;51.270;6.522;2022-10-16T16:44:32;18.90;72.80
28763;DHT22;15918;51.270;6.522;2022-10-16T16:46:58;18.80;72.80
28763;DHT22;15918;51.270;6.522;2022-10-16T16:49:24;18.80;72.80
28763;DHT22;15918;51.270;6.522;2022-10-16T16:51:49;18.90;72.90
28763;DHT22;15918;51.270;6.522;2022-10-16T16:54:15;18.80;72.90
28763;DHT22;15918;51.270;6.522;2022-10-16T16:56:41;18.70;72.80
28763;DHT22;15918;51.270;6.522;2022-10-16T16:59:16;18.70;72.90
28763;DHT22;15918;51.270;6.522;2022-10-16T17:01:43;18.70;72.80
28763;DHT22;15918;51.270;6.522;2022-10-16T17:04:09;18.70;73.00
28763;DHT22;15918;51.270;6.522;2022-10-16T17:06:36;18.70;73.00
28763;DHT22;15918;51.270;6.522;2022-10-16T17:09:03;18.70;73.00
28763;DHT22;15918;51.270;6.522;2022-10-16T17:11:29;18.70;73.00
28763;DHT22;15918;51.270;6.522;2022-10-16T17:13:56;18.70;73.00
28763;DHT22;15918;51.270;6.522;2022-10-16T17:16:25;18.70;73.10
28763;DHT22;15918;51.270;6.522;2022-10-16T17:18:51;18.70;73.10
28763;DHT22;15918;51.270;6.522;2022-10-16T17:21:18;18.70;73.90
28763;DHT22;15918;51.270;6.522;2022-10-16T17:23:44;18.70;73.10
28763;DHT22;15918;51.270;6.522;2022-10-16T17:26:15;18.70;73.10
28763;DHT22;15918;51.270;6.522;2022-10-16T17:28:42;18.70;73.20
28763;DHT22;15918;51.270;6.522;2022-10-16T17:31:23;18.70;73.20
28763;DHT22;15918;51.270;6.522;2022-10-16T17:33:49;18.70;73.10
28763;DHT22;15918;51.270;6.522;2022-10-16T17:36:16;18.70;73.20
28763;DHT22;15918;51.270;6.522;2022-10-16T17:38:42;18.70;73.20
28763;DHT22;15918;51.270;6.522;2022-10-16T17:41:16;18.60;73.20
28763;DHT22;15918;51.270;6.522;2022-10-16T17:43:42;18.70;73.40
28763;DHT22;15918;51.270;6.522;2022-10-16T17:46:09;18.60;73.30
28763;DHT22;15918;51.270;6.522;2022-10-16T17:48:42;18.70;73.40